Sima — 9LU2581 — position and weather

sailwx.info

Track history (hours):
 
Tides and Currents Weather Stations Pressure Air Temp Water Temp Dewpoint Dewpoint Depression Visibility Wind Speed Wind Dir Waves Ship Positions

Sima

Last reported at 2017-Dec-14 04:53 UTC. Time now 2017-Dec-16 20:44 UTC.
Position N 40°58' E 028°57'.

Length 148 m; draft 8.7 m.

Type: Cargo ship. MMSI: 667001778.

Date/timePositionNaut miles runAvg speedWind from/ knotsBaromVisibWave heightAir tempDewpointWater temp
2017-Dec-14 04:53N 40°58' E 028°57'167 4.8
2017-Dec-12 18:20N 43°38' E 030°03'3 8.1
2017-Dec-12 17:58N 43°41' E 030°04'5 8.0
2017-Dec-12 17:22N 43°46' E 030°06'11 8.0
2017-Dec-12 15:56N 43°57' E 030°11'3 7.9
2017-Dec-12 15:30N 44°00' E 030°12'4 7.9
2017-Dec-12 15:00N 44°04' E 030°14'9 7.7
2017-Dec-12 13:47N 44°13' E 030°18'2 7.6
2017-Dec-12 13:29N 44°15' E 030°18'4 7.6
2017-Dec-12 12:58N 44°19' E 030°20'4 7.6
2017-Dec-12 12:25N 44°23' E 030°22'3 7.8
2017-Dec-12 12:00N 44°26' E 030°23'4 7.9
2017-Dec-12 11:30N 44°30' E 030°25'4 7.9
2017-Dec-12 10:58N 44°34' E 030°26'5 7.7
2017-Dec-12 10:18N 44°39' E 030°29'7 7.5
2017-Dec-12 09:23N 44°45' E 030°31'93 7.2
2017-Dec-11 20:22N 46°17' E 030°53'3 7.3
2017-Dec-11 19:55N 46°20' E 030°52'3 7.3
2017-Dec-11 19:30N 46°23' E 030°51'4 7.4
2017-Dec-11 18:59N 46°27' E 030°50'3 5.6
2017-Dec-11 18:30N 46°29' E 030°47'2 3.0
2017-Dec-11 18:00N 46°29' E 030°45'0 0.4
2017-Dec-11 17:30N 46°29' E 030°45'0 0.0
2017-Dec-11 17:00N 46°29' E 030°45'0 0.0
2017-Dec-11 16:27N 46°29' E 030°45'0 0.0
2017-Dec-11 15:57N 46°29' E 030°45'0 0.0
2017-Dec-11 15:24N 46°29' E 030°45'0 0.0
2017-Dec-11 14:56N 46°29' E 030°45'0 0.0
2017-Dec-11 14:20N 46°29' E 030°45'0 0.0
2017-Dec-11 13:56N 46°29' E 030°45'0 0.0
2017-Dec-11 13:23N 46°29' E 030°45'0 0.0
2017-Dec-11 12:53N 46°29' E 030°45'0 0.0
2017-Dec-11 12:14N 46°29' E 030°45'0 0.0
2017-Dec-11 11:59N 46°29' E 030°45'0 0.0
2017-Dec-11 11:14N 46°29' E 030°45'0 0.0
2017-Dec-11 10:59N 46°29' E 030°45'0 0.0
2017-Dec-11 10:05N 46°29' E 030°45'0 0.0
2017-Dec-11 09:47N 46°29' E 030°45'0 0.0
2017-Dec-11 09:17N 46°29' E 030°45'0 0.0
2017-Dec-11 08:59N 46°29' E 030°45'0 0.0
2017-Dec-11 08:20N 46°29' E 030°45'0 0.0
2017-Dec-11 07:44N 46°29' E 030°45'0 0.0
2017-Dec-11 07:29N 46°29' E 030°45'0 0.0
2017-Dec-11 06:59N 46°29' E 030°45'0 0.0
2017-Dec-11 06:29N 46°29' E 030°45'0 0.0
2017-Dec-11 05:56N 46°29' E 030°45'0 0.0
2017-Dec-11 05:29N 46°29' E 030°45'0 0.0
2017-Dec-11 04:59N 46°29' E 030°45'0 0.0
2017-Dec-11 04:26N 46°29' E 030°45'0 0.0
2017-Dec-11 03:59N 46°29' E 030°45'0 0.0
2017-Dec-11 03:29N 46°29' E 030°45'0 0.0
2017-Dec-11 02:50N 46°29' E 030°45'0 0.0
2017-Dec-11 02:29N 46°29' E 030°45'0 0.0
2017-Dec-11 01:59N 46°29' E 030°45'0 0.0
2017-Dec-11 01:17N 46°29' E 030°45'0 0.0
2017-Dec-11 00:17N 46°29' E 030°45'0 0.0
2017-Dec-10 23:59N 46°29' E 030°45'0 0.0
2017-Dec-10 23:20N 46°29' E 030°45'0 0.0
2017-Dec-10 22:53N 46°29' E 030°45'0 0.0
2017-Dec-10 22:29N 46°29' E 030°45'0 0.0
2017-Dec-10 21:59N 46°29' E 030°45'0 0.0
2017-Dec-10 21:29N 46°29' E 030°45'0 0.0
2017-Dec-10 20:59N 46°29' E 030°45'0 0.0
2017-Dec-10 20:29N 46°29' E 030°45'0 0.0
2017-Dec-10 19:59N 46°29' E 030°45'0 0.0
2017-Dec-10 19:26N 46°29' E 030°45'0 0.0
2017-Dec-10 18:56N 46°29' E 030°45'0 0.0
2017-Dec-10 18:29N 46°29' E 030°45'0 0.0
2017-Dec-10 17:53N 46°29' E 030°45'0 0.0
2017-Dec-10 17:29N 46°29' E 030°45'0 0.0
2017-Dec-10 16:47N 46°29' E 030°45'0 0.0
2017-Dec-10 16:29N 46°29' E 030°45'0 0.0
2017-Dec-10 15:53N 46°29' E 030°45'0 0.0
2017-Dec-10 15:29N 46°29' E 030°45'0 0.0
2017-Dec-10 14:59N 46°29' E 030°45'0 0.0
2017-Dec-10 14:29N 46°29' E 030°45'0 0.0
2017-Dec-10 13:47N 46°29' E 030°45'0 0.0
2017-Dec-10 13:29N 46°29' E 030°45'0 0.0
2017-Dec-10 12:59N 46°29' E 030°45'0 0.0
2017-Dec-10 12:29N 46°29' E 030°45'0 0.0
2017-Dec-10 11:47N 46°29' E 030°45'0 0.0
2017-Dec-10 11:26N 46°29' E 030°45'0 0.0
2017-Dec-10 10:59N 46°29' E 030°45'0 0.0
2017-Dec-10 10:29N 46°29' E 030°45'0 0.0
2017-Dec-10 09:59N 46°29' E 030°45'0 0.0
2017-Dec-10 09:17N 46°29' E 030°45'0 0.0
2017-Dec-10 08:53N 46°29' E 030°45'0 0.0
2017-Dec-10 08:26N 46°29' E 030°45'0 0.0
2017-Dec-10 07:53N 46°29' E 030°45'0 0.0
2017-Dec-10 07:23N 46°29' E 030°45'0 0.0
2017-Dec-10 06:59N 46°29' E 030°45'0 0.0
2017-Dec-10 06:29N 46°29' E 030°45'0 0.0
2017-Dec-10 05:59N 46°29' E 030°45'0 0.0
2017-Dec-10 05:29N 46°29' E 030°45'0 0.0
2017-Dec-10 04:56N 46°29' E 030°45'0 0.0
2017-Dec-10 04:26N 46°29' E 030°45'0 0.0
2017-Dec-10 03:59N 46°29' E 030°45'0 0.0
2017-Dec-10 03:17N 46°29' E 030°45'0 0.0
2017-Dec-10 02:53N 46°29' E 030°45'0 0.0
2017-Dec-10 02:29N 46°29' E 030°45'0 0.0
2017-Dec-10 01:49N 46°29' E 030°45'0 0.0
2017-Dec-10 01:19N 46°29' E 030°45'0 0.0
2017-Dec-10 00:52N 46°29' E 030°45'0 0.0
2017-Dec-10 00:28N 46°29' E 030°45'0 0.0
2017-Dec-09 23:52N 46°29' E 030°45'0 0.0
2017-Dec-09 23:28N 46°29' E 030°45'0 0.0
2017-Dec-09 22:58N 46°29' E 030°45'0 0.0
2017-Dec-09 22:28N 46°29' E 030°45'0 0.0
2017-Dec-09 21:55N 46°29' E 030°45'0 0.0
2017-Dec-09 20:49N 46°29' E 030°45'0 0.0
2017-Dec-09 20:22N 46°29' E 030°45'0 0.0
2017-Dec-09 19:46N 46°29' E 030°45'0 0.0
2017-Dec-09 19:19N 46°29' E 030°45'0 0.0
2017-Dec-09 18:58N 46°29' E 030°45'0 0.0
2017-Dec-09 18:28N 46°29' E 030°45'0 0.0
2017-Dec-09 17:52N 46°29' E 030°45'0 0.0
2017-Dec-09 17:28N 46°29' E 030°45'0 0.0
2017-Dec-09 16:58N 46°29' E 030°45'0 0.0
2017-Dec-09 16:28N 46°29' E 030°45'0 0.0
2017-Dec-09 15:58N 46°29' E 030°45'0 0.0
2017-Dec-09 15:25N 46°29' E 030°45'0 0.0
2017-Dec-09 14:58N 46°29' E 030°45'0 0.0
2017-Dec-09 14:28N 46°29' E 030°45'0 0.0
2017-Dec-09 13:37N 46°29' E 030°45'0 0.0
2017-Dec-09 13:28N 46°29' E 030°45'0 0.0
2017-Dec-09 12:58N 46°29' E 030°45'0 0.0
2017-Dec-09 12:28N 46°29' E 030°45'0 0.0
2017-Dec-09 11:58N 46°29' E 030°45'0 0.0
2017-Dec-09 11:22N 46°29' E 030°45'0 0.0
2017-Dec-09 10:58N 46°29' E 030°45'0 0.0
2017-Dec-09 10:25N 46°29' E 030°45'0 0.0
2017-Dec-09 09:58N 46°29' E 030°45'0 0.0
2017-Dec-09 09:22N 46°29' E 030°45'0 0.0
2017-Dec-09 08:58N 46°29' E 030°45'0 0.0
2017-Dec-09 08:22N 46°29' E 030°45'0 0.0
2017-Dec-09 07:52N 46°29' E 030°45'0 0.0
2017-Dec-09 07:28N 46°29' E 030°45'0 0.0
2017-Dec-09 06:43N 46°29' E 030°45'0 0.0
2017-Dec-09 06:28N 46°29' E 030°45'0 0.0
2017-Dec-09 05:52N 46°29' E 030°45'0 0.0
2017-Dec-09 04:43N 46°29' E 030°45'0 0.0
2017-Dec-09 04:25N 46°29' E 030°45'0 0.0
2017-Dec-09 03:52N 46°29' E 030°45'0 0.0
2017-Dec-09 03:28N 46°29' E 030°45'0 0.0
2017-Dec-09 02:52N 46°29' E 030°45'0 0.0
2017-Dec-09 02:25N 46°29' E 030°45'0 0.0
2017-Dec-09 01:58N 46°29' E 030°45'0 0.0
2017-Dec-09 01:28N 46°29' E 030°45'0 0.0
2017-Dec-09 00:52N 46°29' E 030°45'0 0.0
2017-Dec-09 00:28N 46°29' E 030°45'0 0.0
2017-Dec-08 23:01N 46°29' E 030°45'0 0.0
2017-Dec-08 22:34N 46°29' E 030°45'0 0.0
2017-Dec-08 22:25N 46°29' E 030°45'0 0.0
2017-Dec-08 21:55N 46°29' E 030°45'0 0.0
2017-Dec-08 21:13N 46°29' E 030°45'0 0.0
2017-Dec-08 20:52N 46°29' E 030°45'0 0.0
2017-Dec-08 20:28N 46°29' E 030°45'0 0.0
2017-Dec-08 19:58N 46°29' E 030°45'0 0.0
2017-Dec-08 19:25N 46°29' E 030°45'0 0.0
2017-Dec-08 18:58N 46°29' E 030°45'0 0.0
2017-Dec-08 18:16N 46°29' E 030°45'0 0.0
2017-Dec-08 17:49N 46°29' E 030°45'0 0.0
2017-Dec-08 17:28N 46°29' E 030°45'0 0.0
2017-Dec-08 16:13N 46°29' E 030°45'0 0.0
2017-Dec-08 15:58N 46°29' E 030°45'0 0.0
2017-Dec-08 15:16N 46°29' E 030°45'0 0.0
2017-Dec-08 14:46N 46°29' E 030°45'0 0.0
2017-Dec-08 14:28N 46°29' E 030°45'0 0.0
2017-Dec-08 14:01N 46°29' E 030°45'0 0.0
2017-Dec-08 13:24N 46°29' E 030°45'0 0.0
2017-Dec-08 12:54N 46°29' E 030°45'0 0.0
2017-Dec-08 12:18N 46°29' E 030°45'0 0.0
2017-Dec-08 11:45N 46°29' E 030°45'0 0.0
2017-Dec-08 11:30N 46°29' E 030°45'0 0.0
2017-Dec-08 11:00N 46°29' E 030°45'0 0.0
2017-Dec-08 10:27N 46°29' E 030°45'0 0.0
2017-Dec-08 09:57N 46°29' E 030°45'0 0.0
2017-Dec-08 09:15N 46°29' E 030°45'0 0.0
2017-Dec-08 09:00N 46°29' E 030°45'0 0.0
2017-Dec-08 08:21N 46°29' E 030°45'0 0.0
2017-Dec-08 08:00N 46°29' E 030°45'0 0.0
2017-Dec-08 07:30N 46°29' E 030°45'0 0.0
2017-Dec-08 06:54N 46°29' E 030°45'0 0.0
2017-Dec-08 06:30N 46°29' E 030°45'0 0.0
2017-Dec-08 06:00N 46°29' E 030°45'0 0.0
2017-Dec-08 05:09N 46°29' E 030°45'0 0.0
2017-Dec-08 05:00N 46°29' E 030°45'0 0.0
2017-Dec-08 04:27N 46°29' E 030°45'0 0.0
2017-Dec-08 04:00N 46°29' E 030°45'0 0.0
2017-Dec-08 03:30N 46°29' E 030°45'0 0.0
2017-Dec-08 02:57N 46°29' E 030°45'0 0.0
2017-Dec-08 02:30N 46°29' E 030°45'0 0.0
2017-Dec-08 01:39N 46°29' E 030°45'0 0.0
2017-Dec-08 01:30N 46°29' E 030°45'0 0.0
2017-Dec-08 00:57N 46°29' E 030°45'0 0.0
2017-Dec-08 00:21N 46°29' E 030°45'0 0.0
2017-Dec-07 23:51N 46°29' E 030°45'0 0.0
2017-Dec-07 23:30N 46°29' E 030°45'0 0.0
2017-Dec-07 23:00N 46°29' E 030°45'0 0.0
2017-Dec-07 22:06N 46°29' E 030°45'0 0.0
2017-Dec-07 21:54N 46°29' E 030°45'0 0.0
2017-Dec-07 21:27N 46°29' E 030°45'0 0.0
2017-Dec-07 20:24N 46°29' E 030°45'0 0.0
2017-Dec-07 19:54N 46°29' E 030°45'0 0.0
2017-Dec-07 19:03N 46°29' E 030°45'0 0.1
2017-Dec-07 19:00N 46°29' E 030°45'0 0.0
2017-Dec-07 18:30N 46°29' E 030°45'0 0.0
2017-Dec-07 17:54N 46°29' E 030°45'0 0.0
2017-Dec-07 17:27N 46°29' E 030°45'0 0.0
2017-Dec-07 16:54N 46°29' E 030°45'0 0.0
2017-Dec-07 16:30N 46°29' E 030°45'0 0.0
2017-Dec-07 15:57N 46°29' E 030°45'0 0.0
2017-Dec-07 15:06N 46°29' E 030°45'0 0.0
2017-Dec-07 14:54N 46°29' E 030°45'0 0.0
2017-Dec-07 14:30N 46°29' E 030°45'0 0.0
2017-Dec-07 14:00N 46°29' E 030°45'0 0.0
2017-Dec-07 13:15N 46°29' E 030°45'0 0.0
2017-Dec-07 12:51N 46°29' E 030°45'0 0.0
2017-Dec-07 12:27N 46°29' E 030°45'0 0.0
2017-Dec-07 12:00N 46°29' E 030°45'0 0.0
2017-Dec-07 11:30N 46°29' E 030°45'0 0.0
2017-Dec-07 11:00N 46°29' E 030°45'0 0.0
2017-Dec-07 10:30N 46°29' E 030°45'0 0.0
2017-Dec-07 09:57N 46°29' E 030°45'0 0.0
2017-Dec-07 09:27N 46°29' E 030°45'0 0.0
2017-Dec-07 08:48N 46°29' E 030°45'0 0.0
2017-Dec-07 08:21N 46°29' E 030°45'0 0.0
2017-Dec-07 07:57N 46°29' E 030°45'0 0.0
2017-Dec-07 07:30N 46°29' E 030°45'0 0.0
2017-Dec-07 06:57N 46°29' E 030°45'0 0.0
2017-Dec-07 06:21N 46°29' E 030°45'0 0.0
2017-Dec-07 06:00N 46°29' E 030°45'0 0.0
2017-Dec-07 05:30N 46°29' E 030°45'0 0.0
2017-Dec-07 04:21N 46°29' E 030°45'0 0.0
2017-Dec-07 03:51N 46°29' E 030°45'0 0.0
2017-Dec-07 03:09N 46°29' E 030°45'0 0.0
2017-Dec-07 03:00N 46°29' E 030°45'0 0.0
2017-Dec-07 02:30N 46°29' E 030°45'0 0.0
2017-Dec-07 02:00N 46°29' E 030°45'0 0.0
2017-Dec-07 01:30N 46°29' E 030°45'0 0.0
2017-Dec-07 01:00N 46°29' E 030°45'0 0.0
2017-Dec-07 00:29N 46°29' E 030°45'0 0.0
2017-Dec-06 23:53N 46°29' E 030°45'0 0.0
2017-Dec-06 23:20N 46°29' E 030°45'0 0.0
2017-Dec-06 22:41N 46°29' E 030°45'0 0.0
2017-Dec-06 22:17N 46°29' E 030°45'0 0.0
2017-Dec-06 21:59N 46°29' E 030°45'0 0.0
2017-Dec-06 20:56N 46°29' E 030°45'  
2017-Dec-04 10:24N 46°28' E 030°52'0 0.0
2017-Dec-04 10:00N 46°28' E 030°52'0 0.0
2017-Dec-04 09:30N 46°28' E 030°52'0 0.0
2017-Dec-04 08:48N 46°28' E 030°52'0 0.1
2017-Dec-04 08:27N 46°28' E 030°52'0 0.0
2017-Dec-04 07:54N 46°28' E 030°52'0 0.0
2017-Dec-04 07:21N 46°28' E 030°52'0 0.0
2017-Dec-04 06:33N 46°28' E 030°52'0 0.0
2017-Dec-04 06:30N 46°28' E 030°52'0 0.0
2017-Dec-04 05:12N 46°28' E 030°52'0 0.0
2017-Dec-04 05:00N 46°28' E 030°52'  
Track history (hours):
 
Tides and Currents Weather Stations Pressure Air Temp Water Temp Dewpoint Dewpoint Depression Visibility Wind Speed Wind Dir Waves Ship Positions

Sima

Last reported at 2017-Dec-14 04:53 UTC. Time now 2017-Dec-16 20:44 UTC.
Position N 40°58' E 028°57'.

Length 148 m; draft 8.7 m.

Type: Cargo ship. MMSI: 667001778.

Date/timePositionNaut miles runAvg speedWind from/ knotsBaromVisibWave heightAir tempDewpointWater temp
2017-Dec-14 04:53N 40°58' E 028°57'167 4.8
2017-Dec-12 18:20N 43°38' E 030°03'3 8.1
2017-Dec-12 17:58N 43°41' E 030°04'5 8.0
2017-Dec-12 17:22N 43°46' E 030°06'11 8.0
2017-Dec-12 15:56N 43°57' E 030°11'3 7.9
2017-Dec-12 15:30N 44°00' E 030°12'4 7.9
2017-Dec-12 15:00N 44°04' E 030°14'9 7.7
2017-Dec-12 13:47N 44°13' E 030°18'2 7.6
2017-Dec-12 13:29N 44°15' E 030°18'4 7.6
2017-Dec-12 12:58N 44°19' E 030°20'4 7.6
2017-Dec-12 12:25N 44°23' E 030°22'3 7.8
2017-Dec-12 12:00N 44°26' E 030°23'4 7.9
2017-Dec-12 11:30N 44°30' E 030°25'4 7.9
2017-Dec-12 10:58N 44°34' E 030°26'5 7.7
2017-Dec-12 10:18N 44°39' E 030°29'7 7.5
2017-Dec-12 09:23N 44°45' E 030°31'93 7.2
2017-Dec-11 20:22N 46°17' E 030°53'3 7.3
2017-Dec-11 19:55N 46°20' E 030°52'3 7.3
2017-Dec-11 19:30N 46°23' E 030°51'4 7.4
2017-Dec-11 18:59N 46°27' E 030°50'3 5.6
2017-Dec-11 18:30N 46°29' E 030°47'2 3.0
2017-Dec-11 18:00N 46°29' E 030°45'0 0.4
2017-Dec-11 17:30N 46°29' E 030°45'0 0.0
2017-Dec-11 17:00N 46°29' E 030°45'0 0.0
2017-Dec-11 16:27N 46°29' E 030°45'0 0.0
2017-Dec-11 15:57N 46°29' E 030°45'0 0.0
2017-Dec-11 15:24N 46°29' E 030°45'0 0.0
2017-Dec-11 14:56N 46°29' E 030°45'0 0.0
2017-Dec-11 14:20N 46°29' E 030°45'0 0.0
2017-Dec-11 13:56N 46°29' E 030°45'0 0.0
2017-Dec-11 13:23N 46°29' E 030°45'0 0.0
2017-Dec-11 12:53N 46°29' E 030°45'0 0.0
2017-Dec-11 12:14N 46°29' E 030°45'0 0.0
2017-Dec-11 11:59N 46°29' E 030°45'0 0.0
2017-Dec-11 11:14N 46°29' E 030°45'0 0.0
2017-Dec-11 10:59N 46°29' E 030°45'0 0.0
2017-Dec-11 10:05N 46°29' E 030°45'0 0.0
2017-Dec-11 09:47N 46°29' E 030°45'0 0.0
2017-Dec-11 09:17N 46°29' E 030°45'0 0.0
2017-Dec-11 08:59N 46°29' E 030°45'0 0.0
2017-Dec-11 08:20N 46°29' E 030°45'0 0.0
2017-Dec-11 07:44N 46°29' E 030°45'0 0.0
2017-Dec-11 07:29N 46°29' E 030°45'0 0.0
2017-Dec-11 06:59N 46°29' E 030°45'0 0.0
2017-Dec-11 06:29N 46°29' E 030°45'0 0.0
2017-Dec-11 05:56N 46°29' E 030°45'0 0.0
2017-Dec-11 05:29N 46°29' E 030°45'0 0.0
2017-Dec-11 04:59N 46°29' E 030°45'0 0.0
2017-Dec-11 04:26N 46°29' E 030°45'0 0.0
2017-Dec-11 03:59N 46°29' E 030°45'0 0.0
2017-Dec-11 03:29N 46°29' E 030°45'0 0.0
2017-Dec-11 02:50N 46°29' E 030°45'0 0.0
2017-Dec-11 02:29N 46°29' E 030°45'0 0.0
2017-Dec-11 01:59N 46°29' E 030°45'0 0.0
2017-Dec-11 01:17N 46°29' E 030°45'0 0.0
2017-Dec-11 00:17N 46°29' E 030°45'0 0.0
2017-Dec-10 23:59N 46°29' E 030°45'0 0.0
2017-Dec-10 23:20N 46°29' E 030°45'0 0.0
2017-Dec-10 22:53N 46°29' E 030°45'0 0.0
2017-Dec-10 22:29N 46°29' E 030°45'0 0.0
2017-Dec-10 21:59N 46°29' E 030°45'0 0.0
2017-Dec-10 21:29N 46°29' E 030°45'0 0.0
2017-Dec-10 20:59N 46°29' E 030°45'0 0.0
2017-Dec-10 20:29N 46°29' E 030°45'0 0.0
2017-Dec-10 19:59N 46°29' E 030°45'0 0.0
2017-Dec-10 19:26N 46°29' E 030°45'0 0.0
2017-Dec-10 18:56N 46°29' E 030°45'0 0.0
2017-Dec-10 18:29N 46°29' E 030°45'0 0.0
2017-Dec-10 17:53N 46°29' E 030°45'0 0.0
2017-Dec-10 17:29N 46°29' E 030°45'0 0.0
2017-Dec-10 16:47N 46°29' E 030°45'0 0.0
2017-Dec-10 16:29N 46°29' E 030°45'0 0.0
2017-Dec-10 15:53N 46°29' E 030°45'0 0.0
2017-Dec-10 15:29N 46°29' E 030°45'0 0.0
2017-Dec-10 14:59N 46°29' E 030°45'0 0.0
2017-Dec-10 14:29N 46°29' E 030°45'0 0.0
2017-Dec-10 13:47N 46°29' E 030°45'0 0.0
2017-Dec-10 13:29N 46°29' E 030°45'0 0.0
2017-Dec-10 12:59N 46°29' E 030°45'0 0.0
2017-Dec-10 12:29N 46°29' E 030°45'0 0.0
2017-Dec-10 11:47N 46°29' E 030°45'0 0.0
2017-Dec-10 11:26N 46°29' E 030°45'0 0.0
2017-Dec-10 10:59N 46°29' E 030°45'0 0.0
2017-Dec-10 10:29N 46°29' E 030°45'0 0.0
2017-Dec-10 09:59N 46°29' E 030°45'0 0.0
2017-Dec-10 09:17N 46°29' E 030°45'0 0.0
2017-Dec-10 08:53N 46°29' E 030°45'0 0.0
2017-Dec-10 08:26N 46°29' E 030°45'0 0.0
2017-Dec-10 07:53N 46°29' E 030°45'0 0.0
2017-Dec-10 07:23N 46°29' E 030°45'0 0.0
2017-Dec-10 06:59N 46°29' E 030°45'0 0.0
2017-Dec-10 06:29N 46°29' E 030°45'0 0.0
2017-Dec-10 05:59N 46°29' E 030°45'0 0.0
2017-Dec-10 05:29N 46°29' E 030°45'0 0.0
2017-Dec-10 04:56N 46°29' E 030°45'0 0.0
2017-Dec-10 04:26N 46°29' E 030°45'0 0.0
2017-Dec-10 03:59N 46°29' E 030°45'0 0.0
2017-Dec-10 03:17N 46°29' E 030°45'0 0.0
2017-Dec-10 02:53N 46°29' E 030°45'0 0.0
2017-Dec-10 02:29N 46°29' E 030°45'0 0.0
2017-Dec-10 01:49N 46°29' E 030°45'0 0.0
2017-Dec-10 01:19N 46°29' E 030°45'0 0.0
2017-Dec-10 00:52N 46°29' E 030°45'0 0.0
2017-Dec-10 00:28N 46°29' E 030°45'0 0.0
2017-Dec-09 23:52N 46°29' E 030°45'0 0.0
2017-Dec-09 23:28N 46°29' E 030°45'0 0.0
2017-Dec-09 22:58N 46°29' E 030°45'0 0.0
2017-Dec-09 22:28N 46°29' E 030°45'0 0.0
2017-Dec-09 21:55N 46°29' E 030°45'0 0.0
2017-Dec-09 20:49N 46°29' E 030°45'0 0.0
2017-Dec-09 20:22N 46°29' E 030°45'0 0.0
2017-Dec-09 19:46N 46°29' E 030°45'0 0.0
2017-Dec-09 19:19N 46°29' E 030°45'0 0.0
2017-Dec-09 18:58N 46°29' E 030°45'0 0.0
2017-Dec-09 18:28N 46°29' E 030°45'0 0.0
2017-Dec-09 17:52N 46°29' E 030°45'0 0.0
2017-Dec-09 17:28N 46°29' E 030°45'0 0.0
2017-Dec-09 16:58N 46°29' E 030°45'0 0.0
2017-Dec-09 16:28N 46°29' E 030°45'0 0.0
2017-Dec-09 15:58N 46°29' E 030°45'0 0.0
2017-Dec-09 15:25N 46°29' E 030°45'0 0.0
2017-Dec-09 14:58N 46°29' E 030°45'0 0.0
2017-Dec-09 14:28N 46°29' E 030°45'0 0.0
2017-Dec-09 13:37N 46°29' E 030°45'0 0.0
2017-Dec-09 13:28N 46°29' E 030°45'0 0.0
2017-Dec-09 12:58N 46°29' E 030°45'0 0.0
2017-Dec-09 12:28N 46°29' E 030°45'0 0.0
2017-Dec-09 11:58N 46°29' E 030°45'0 0.0
2017-Dec-09 11:22N 46°29' E 030°45'0 0.0
2017-Dec-09 10:58N 46°29' E 030°45'0 0.0
2017-Dec-09 10:25N 46°29' E 030°45'0 0.0
2017-Dec-09 09:58N 46°29' E 030°45'0 0.0
2017-Dec-09 09:22N 46°29' E 030°45'0 0.0
2017-Dec-09 08:58N 46°29' E 030°45'0 0.0
2017-Dec-09 08:22N 46°29' E 030°45'0 0.0
2017-Dec-09 07:52N 46°29' E 030°45'0 0.0
2017-Dec-09 07:28N 46°29' E 030°45'0 0.0
2017-Dec-09 06:43N 46°29' E 030°45'0 0.0
2017-Dec-09 06:28N 46°29' E 030°45'0 0.0
2017-Dec-09 05:52N 46°29' E 030°45'0 0.0
2017-Dec-09 04:43N 46°29' E 030°45'0 0.0
2017-Dec-09 04:25N 46°29' E 030°45'0 0.0
2017-Dec-09 03:52N 46°29' E 030°45'0 0.0
2017-Dec-09 03:28N 46°29' E 030°45'0 0.0
2017-Dec-09 02:52N 46°29' E 030°45'0 0.0
2017-Dec-09 02:25N 46°29' E 030°45'0 0.0
2017-Dec-09 01:58N 46°29' E 030°45'0 0.0
2017-Dec-09 01:28N 46°29' E 030°45'0 0.0
2017-Dec-09 00:52N 46°29' E 030°45'0 0.0
2017-Dec-09 00:28N 46°29' E 030°45'0 0.0
2017-Dec-08 23:01N 46°29' E 030°45'0 0.0
2017-Dec-08 22:34N 46°29' E 030°45'0 0.0
2017-Dec-08 22:25N 46°29' E 030°45'0 0.0
2017-Dec-08 21:55N 46°29' E 030°45'0 0.0
2017-Dec-08 21:13N 46°29' E 030°45'0 0.0
2017-Dec-08 20:52N 46°29' E 030°45'0 0.0
2017-Dec-08 20:28N 46°29' E 030°45'0 0.0
2017-Dec-08 19:58N 46°29' E 030°45'0 0.0
2017-Dec-08 19:25N 46°29' E 030°45'0 0.0
2017-Dec-08 18:58N 46°29' E 030°45'0 0.0
2017-Dec-08 18:16N 46°29' E 030°45'0 0.0
2017-Dec-08 17:49N 46°29' E 030°45'0 0.0
2017-Dec-08 17:28N 46°29' E 030°45'0 0.0
2017-Dec-08 16:13N 46°29' E 030°45'0 0.0
2017-Dec-08 15:58N 46°29' E 030°45'0 0.0
2017-Dec-08 15:16N 46°29' E 030°45'0 0.0
2017-Dec-08 14:46N 46°29' E 030°45'0 0.0
2017-Dec-08 14:28N 46°29' E 030°45'0 0.0
2017-Dec-08 14:01N 46°29' E 030°45'0 0.0
2017-Dec-08 13:24N 46°29' E 030°45'0 0.0
2017-Dec-08 12:54N 46°29' E 030°45'0 0.0
2017-Dec-08 12:18N 46°29' E 030°45'0 0.0
2017-Dec-08 11:45N 46°29' E 030°45'0 0.0
2017-Dec-08 11:30N 46°29' E 030°45'0 0.0
2017-Dec-08 11:00N 46°29' E 030°45'0 0.0
2017-Dec-08 10:27N 46°29' E 030°45'0 0.0
2017-Dec-08 09:57N 46°29' E 030°45'0 0.0
2017-Dec-08 09:15N 46°29' E 030°45'0 0.0
2017-Dec-08 09:00N 46°29' E 030°45'0 0.0
2017-Dec-08 08:21N 46°29' E 030°45'0 0.0
2017-Dec-08 08:00N 46°29' E 030°45'0 0.0
2017-Dec-08 07:30N 46°29' E 030°45'0 0.0
2017-Dec-08 06:54N 46°29' E 030°45'0 0.0
2017-Dec-08 06:30N 46°29' E 030°45'0 0.0
2017-Dec-08 06:00N 46°29' E 030°45'0 0.0
2017-Dec-08 05:09N 46°29' E 030°45'0 0.0
2017-Dec-08 05:00N 46°29' E 030°45'0 0.0
2017-Dec-08 04:27N 46°29' E 030°45'0 0.0
2017-Dec-08 04:00N 46°29' E 030°45'0 0.0
2017-Dec-08 03:30N 46°29' E 030°45'0 0.0
2017-Dec-08 02:57N 46°29' E 030°45'0 0.0
2017-Dec-08 02:30N 46°29' E 030°45'0 0.0
2017-Dec-08 01:39N 46°29' E 030°45'0 0.0
2017-Dec-08 01:30N 46°29' E 030°45'0 0.0
2017-Dec-08 00:57N 46°29' E 030°45'0 0.0
2017-Dec-08 00:21N 46°29' E 030°45'0 0.0
2017-Dec-07 23:51N 46°29' E 030°45'0 0.0
2017-Dec-07 23:30N 46°29' E 030°45'0 0.0
2017-Dec-07 23:00N 46°29' E 030°45'0 0.0
2017-Dec-07 22:06N 46°29' E 030°45'0 0.0
2017-Dec-07 21:54N 46°29' E 030°45'0 0.0
2017-Dec-07 21:27N 46°29' E 030°45'0 0.0
2017-Dec-07 20:24N 46°29' E 030°45'0 0.0
2017-Dec-07 19:54N 46°29' E 030°45'0 0.0
2017-Dec-07 19:03N 46°29' E 030°45'0 0.1
2017-Dec-07 19:00N 46°29' E 030°45'0 0.0
2017-Dec-07 18:30N 46°29' E 030°45'0 0.0
2017-Dec-07 17:54N 46°29' E 030°45'0 0.0
2017-Dec-07 17:27N 46°29' E 030°45'0 0.0
2017-Dec-07 16:54N 46°29' E 030°45'0 0.0
2017-Dec-07 16:30N 46°29' E 030°45'0 0.0
2017-Dec-07 15:57N 46°29' E 030°45'0 0.0
2017-Dec-07 15:06N 46°29' E 030°45'0 0.0
2017-Dec-07 14:54N 46°29' E 030°45'0 0.0
2017-Dec-07 14:30N 46°29' E 030°45'0 0.0
2017-Dec-07 14:00N 46°29' E 030°45'0 0.0
2017-Dec-07 13:15N 46°29' E 030°45'0 0.0
2017-Dec-07 12:51N 46°29' E 030°45'0 0.0
2017-Dec-07 12:27N 46°29' E 030°45'0 0.0
2017-Dec-07 12:00N 46°29' E 030°45'0 0.0
2017-Dec-07 11:30N 46°29' E 030°45'0 0.0
2017-Dec-07 11:00N 46°29' E 030°45'0 0.0
2017-Dec-07 10:30N 46°29' E 030°45'0 0.0
2017-Dec-07 09:57N 46°29' E 030°45'0 0.0
2017-Dec-07 09:27N 46°29' E 030°45'0 0.0
2017-Dec-07 08:48N 46°29' E 030°45'0 0.0
2017-Dec-07 08:21N 46°29' E 030°45'0 0.0
2017-Dec-07 07:57N 46°29' E 030°45'0 0.0
2017-Dec-07 07:30N 46°29' E 030°45'0 0.0
2017-Dec-07 06:57N 46°29' E 030°45'0 0.0
2017-Dec-07 06:21N 46°29' E 030°45'0 0.0
2017-Dec-07 06:00N 46°29' E 030°45'0 0.0
2017-Dec-07 05:30N 46°29' E 030°45'0 0.0
2017-Dec-07 04:21N 46°29' E 030°45'0 0.0
2017-Dec-07 03:51N 46°29' E 030°45'0 0.0
2017-Dec-07 03:09N 46°29' E 030°45'0 0.0
2017-Dec-07 03:00N 46°29' E 030°45'0 0.0
2017-Dec-07 02:30N 46°29' E 030°45'0 0.0
2017-Dec-07 02:00N 46°29' E 030°45'0 0.0
2017-Dec-07 01:30N 46°29' E 030°45'0 0.0
2017-Dec-07 01:00N 46°29' E 030°45'0 0.0
2017-Dec-07 00:29N 46°29' E 030°45'0 0.0
2017-Dec-06 23:53N 46°29' E 030°45'0 0.0
2017-Dec-06 23:20N 46°29' E 030°45'0 0.0
2017-Dec-06 22:41N 46°29' E 030°45'0 0.0
2017-Dec-06 22:17N 46°29' E 030°45'0 0.0
2017-Dec-06 21:59N 46°29' E 030°45'0 0.0
2017-Dec-06 20:56N 46°29' E 030°45'  
2017-Dec-04 10:24N 46°28' E 030°52'0 0.0
2017-Dec-04 10:00N 46°28' E 030°52'0 0.0
2017-Dec-04 09:30N 46°28' E 030°52'0 0.0
2017-Dec-04 08:48N 46°28' E 030°52'0 0.1
2017-Dec-04 08:27N 46°28' E 030°52'0 0.0
2017-Dec-04 07:54N 46°28' E 030°52'0 0.0
2017-Dec-04 07:21N 46°28' E 030°52'0 0.0
2017-Dec-04 06:33N 46°28' E 030°52'0 0.0
2017-Dec-04 06:30N 46°28' E 030°52'0 0.0
2017-Dec-04 05:12N 46°28' E 030°52'0 0.0
2017-Dec-04 05:00N 46°28' E 030°52'  

Dump ship's entire track history